createdAt,value
2022-11-12T00:00:41.799Z,19.00
2022-11-12T00:03:08.516Z,20.42
2022-11-12T00:05:35.154Z,20.13
2022-11-12T00:08:01.717Z,21.17
2022-11-12T00:10:28.198Z,19.83
2022-11-12T00:12:55.150Z,20.70
2022-11-12T00:15:21.660Z,20.88
2022-11-12T00:17:48.154Z,21.65
2022-11-12T00:20:14.663Z,22.02
2022-11-12T00:22:41.121Z,22.27
2022-11-12T00:25:07.848Z,20.90
2022-11-12T00:27:34.977Z,21.08
2022-11-12T00:30:01.661Z,22.27
2022-11-12T00:32:28.162Z,21.23
2022-11-12T00:34:54.621Z,21.35
2022-11-12T00:37:23.055Z,21.55
2022-11-12T00:39:49.577Z,21.90
2022-11-12T00:42:16.075Z,20.75
2022-11-12T00:44:42.528Z,22.20
2022-11-12T00:47:08.980Z,21.15
2022-11-12T00:49:35.434Z,20.80
2022-11-12T00:52:01.948Z,21.02
2022-11-12T00:54:28.401Z,20.55
2022-11-12T00:56:54.863Z,21.95
2022-11-12T00:59:21.326Z,21.20
2022-11-12T01:01:47.900Z,20.08
2022-11-12T01:04:14.356Z,20.98
2022-11-12T01:06:41.111Z,20.77
2022-11-12T01:09:08.626Z,20.63
2022-11-12T01:11:35.905Z,19.25
2022-11-12T01:14:05.754Z,19.48
2022-11-12T01:16:36.331Z,19.80
2022-11-12T01:19:04.638Z,19.55
2022-11-12T01:21:32.364Z,17.83
2022-11-12T01:24:00.312Z,17.58
2022-11-12T01:26:30.126Z,17.55
2022-11-12T01:28:56.977Z,16.33
2022-11-12T01:31:26.405Z,16.85
2022-11-12T01:33:55.258Z,16.15
2022-11-12T01:36:22.210Z,16.48
2022-11-12T01:38:49.186Z,15.95
2022-11-12T01:41:30.643Z,16.30
2022-11-12T01:44:12.470Z,16.10
2022-11-12T01:46:48.652Z,17.13
2022-11-12T01:49:19.638Z,18.02
2022-11-12T01:51:48.825Z,16.95
2022-11-12T01:54:16.870Z,16.70
2022-11-12T01:56:43.449Z,17.45
2022-11-12T01:59:25.519Z,18.48
2022-11-12T02:01:51.978Z,17.02
2022-11-12T02:04:18.793Z,17.55
2022-11-12T02:06:45.940Z,18.17
2022-11-12T02:09:13.496Z,17.75
2022-11-12T02:11:39.937Z,16.65
2022-11-12T02:14:06.403Z,15.90
2022-11-12T02:16:40.024Z,15.38
2022-11-12T02:21:34.622Z,15.20
2022-11-12T02:24:13.047Z,14.43
2022-11-12T02:26:51.336Z,15.48
2022-11-12T02:29:17.801Z,14.85
2022-11-12T02:31:44.252Z,15.20
2022-11-12T02:34:10.768Z,14.00
2022-11-12T02:36:37.280Z,14.80
2022-11-12T02:39:03.848Z,15.27
2022-11-12T02:41:30.301Z,14.65
2022-11-12T02:43:56.806Z,13.00
2022-11-12T02:46:23.514Z,13.52
2022-11-12T02:48:49.983Z,13.95
2022-11-12T02:51:16.491Z,14.40
2022-11-12T02:53:42.945Z,14.05
2022-11-12T02:56:09.402Z,13.18
2022-11-12T02:58:35.970Z,14.52
2022-11-12T03:01:02.508Z,14.52
2022-11-12T03:03:29.007Z,16.00
2022-11-12T03:06:00.559Z,14.18
2022-11-12T03:08:28.042Z,16.83
2022-11-12T03:10:54.732Z,16.33
2022-11-12T03:13:21.609Z,16.13
2022-11-12T03:15:48.057Z,15.45
2022-11-12T03:18:14.592Z,16.23
2022-11-12T03:20:41.044Z,16.67
2022-11-12T03:23:09.682Z,16.05
2022-11-12T03:25:36.260Z,15.75
2022-11-12T03:28:08.650Z,15.85
2022-11-12T03:30:36.904Z,14.93
2022-11-12T03:33:04.137Z,13.75
2022-11-12T03:35:30.659Z,16.00
2022-11-12T03:37:57.115Z,14.75
2022-11-12T03:40:23.570Z,14.27
2022-11-12T03:42:51.042Z,15.35
2022-11-12T03:45:18.762Z,14.82
2022-11-12T03:47:47.178Z,15.15
2022-11-12T03:50:14.939Z,14.90
2022-11-12T03:52:46.035Z,13.77
2022-11-12T03:55:14.060Z,13.35
2022-11-12T03:57:40.668Z,13.23
2022-11-12T04:00:08.444Z,13.38
2022-11-12T04:02:34.916Z,13.23
2022-11-12T04:05:19.963Z,13.05
2022-11-12T04:08:08.362Z,12.55
2022-11-12T04:10:35.635Z,13.00
2022-11-12T04:13:20.817Z,12.63
2022-11-12T04:16:07.229Z,14.77
2022-11-12T04:18:52.593Z,15.07
2022-11-12T04:21:38.038Z,15.57
2022-11-12T04:24:04.653Z,15.48
2022-11-12T04:26:31.177Z,15.70
2022-11-12T04:29:16.530Z,16.45
2022-11-12T04:31:42.976Z,17.17
2022-11-12T04:34:28.110Z,17.45
2022-11-12T04:36:54.598Z,17.15
2022-11-12T04:39:21.100Z,17.90
2022-11-12T04:42:06.326Z,18.83
2022-11-12T04:44:51.617Z,17.55
2022-11-12T04:47:18.118Z,19.15
2022-11-12T04:49:44.577Z,17.23
2022-11-12T04:52:11.087Z,18.45
2022-11-12T04:54:37.542Z,18.33
2022-11-12T04:57:03.983Z,18.33
2022-11-12T04:59:30.438Z,17.85
2022-11-12T05:01:56.900Z,18.80
2022-11-12T05:04:27.486Z,18.30
2022-11-12T05:06:55.386Z,18.52
2022-11-12T05:09:24.147Z,20.58
2022-11-12T05:11:51.002Z,20.65
2022-11-12T05:14:17.552Z,20.55
2022-11-12T05:16:44.774Z,19.58
2022-11-12T05:19:11.223Z,21.27
2022-11-12T05:21:56.472Z,20.60
2022-11-12T05:24:41.111Z,19.83
2022-11-12T05:27:14.747Z,19.98
2022-11-12T05:29:41.677Z,20.70
2022-11-12T05:32:09.206Z,20.23
2022-11-12T05:34:35.696Z,20.67
2022-11-12T05:37:03.168Z,20.15
2022-11-12T05:39:30.065Z,20.85
2022-11-12T05:42:13.827Z,21.70
2022-11-12T05:44:41.136Z,20.25
2022-11-12T05:47:07.602Z,20.70
2022-11-12T05:49:34.066Z,20.17
2022-11-12T05:52:00.525Z,21.05
2022-11-12T05:54:27.015Z,22.02
2022-11-12T05:56:53.741Z,22.05
2022-11-12T05:59:20.452Z,20.85
2022-11-12T06:01:46.918Z,20.73
2022-11-12T06:04:14.869Z,20.77
2022-11-12T06:06:42.212Z,19.60
2022-11-12T06:09:09.475Z,20.23
2022-11-12T06:11:36.397Z,20.38
2022-11-12T06:14:03.497Z,20.05
2022-11-12T06:16:30.225Z,20.17
2022-11-12T06:18:56.823Z,19.05
2022-11-12T06:21:23.348Z,20.35
2022-11-12T06:23:59.746Z,19.33
2022-11-12T06:26:28.556Z,19.17
2022-11-12T06:28:55.285Z,19.90
2022-11-12T06:31:22.272Z,20.52
2022-11-12T06:33:49.276Z,19.45
2022-11-12T06:36:17.928Z,19.90
2022-11-12T06:38:45.230Z,19.05
2022-11-12T06:41:12.400Z,19.25
2022-11-12T06:43:39.625Z,18.27
2022-11-12T06:46:08.488Z,17.00
2022-11-12T06:48:35.014Z,18.25
2022-11-12T06:51:07.337Z,19.05
2022-11-12T06:53:33.822Z,18.27
2022-11-12T06:56:07.560Z,18.67
2022-11-12T06:58:34.596Z,18.83
2022-11-12T07:01:12.129Z,18.10
2022-11-12T07:03:39.196Z,18.88
2022-11-12T07:06:10.688Z,18.73
2022-11-12T07:08:37.794Z,19.13
2022-11-12T07:11:05.129Z,19.10
2022-11-12T07:13:33.541Z,19.73
2022-11-12T07:16:01.165Z,18.92
2022-11-12T07:18:29.034Z,18.98
2022-11-12T07:21:07.653Z,19.58
2022-11-12T07:23:35.601Z,18.13
2022-11-12T07:26:10.764Z,18.40
2022-11-12T07:28:37.220Z,19.90
2022-11-12T07:31:05.851Z,18.55
2022-11-12T07:33:32.898Z,19.83
2022-11-12T07:36:00.107Z,18.80
2022-11-12T07:38:27.830Z,18.40
2022-11-12T07:41:07.584Z,20.13
2022-11-12T07:43:34.905Z,19.13
2022-11-12T07:46:09.071Z,19.83
2022-11-12T07:48:36.944Z,18.88
2022-11-12T07:51:05.689Z,18.20
2022-11-12T07:53:32.204Z,18.63
2022-11-12T07:56:00.340Z,18.38
2022-11-12T07:58:28.452Z,18.77
2022-11-12T08:00:55.181Z,17.83
2022-11-12T08:03:21.735Z,18.73
2022-11-12T08:05:48.268Z,18.67
2022-11-12T08:08:14.722Z,18.83
2022-11-12T08:10:41.165Z,16.60
2022-11-12T08:13:07.674Z,17.55
2022-11-12T08:15:34.111Z,17.88
2022-11-12T08:18:00.566Z,18.05
2022-11-12T08:20:27.097Z,17.05
2022-11-12T08:22:53.725Z,16.98
2022-11-12T08:25:20.184Z,18.00
2022-11-12T08:27:46.702Z,17.20
2022-11-12T08:30:13.786Z,18.17
2022-11-12T08:32:40.245Z,17.33
2022-11-12T08:35:07.644Z,16.75
2022-11-12T08:37:34.145Z,17.13
2022-11-12T08:40:00.660Z,16.20
2022-11-12T08:42:27.209Z,17.27
2022-11-12T08:44:53.652Z,16.58
2022-11-12T08:47:20.108Z,16.45
2022-11-12T08:49:48.222Z,16.85
2022-11-12T08:52:14.864Z,15.32
2022-11-12T08:54:41.315Z,17.13
2022-11-12T08:57:07.778Z,18.15
2022-11-12T08:59:34.332Z,17.88
2022-11-12T09:02:00.843Z,18.63
2022-11-12T09:04:27.331Z,18.20
2022-11-12T09:06:54.401Z,17.83
2022-11-12T09:09:20.935Z,18.85
2022-11-12T09:11:47.434Z,18.00
2022-11-12T09:14:14.047Z,19.02
2022-11-12T09:16:40.542Z,18.35
2022-11-12T09:19:06.996Z,19.35
2022-11-12T09:21:33.441Z,17.02
2022-11-12T09:23:59.912Z,19.05
2022-11-12T09:26:26.374Z,17.88
2022-11-12T09:28:54.822Z,18.02
2022-11-12T09:31:21.319Z,16.98
2022-11-12T09:33:47.822Z,17.75
2022-11-12T09:36:14.281Z,16.33
2022-11-12T09:38:40.740Z,18.27
2022-11-12T09:41:17.745Z,18.88
2022-11-12T09:43:49.847Z,17.48
2022-11-12T09:46:42.735Z,19.35
2022-11-12T09:49:23.607Z,18.00
2022-11-12T09:51:52.299Z,18.00
2022-11-12T09:54:32.907Z,19.08
2022-11-12T09:56:59.451Z,19.08
2022-11-12T09:59:31.552Z,18.20
2022-11-12T10:02:03.905Z,18.35
2022-11-12T10:04:55.425Z,18.17
2022-11-12T10:07:31.490Z,17.88
2022-11-12T10:10:04.085Z,17.70
2022-11-12T10:12:57.823Z,18.15
2022-11-12T10:16:02.195Z,19.00
2022-11-12T10:18:53.391Z,19.20
2022-11-12T10:21:42.989Z,19.60
2022-11-12T10:24:10.867Z,20.20
2022-11-12T10:26:38.626Z,20.33
2022-11-12T10:29:11.080Z,20.45
2022-11-12T10:31:38.033Z,19.50
2022-11-12T10:34:13.370Z,19.23
2022-11-12T10:36:45.714Z,19.70
2022-11-12T10:39:34.417Z,19.60
2022-11-12T10:42:10.054Z,19.42
2022-11-12T10:44:37.446Z,18.85
2022-11-12T10:47:33.794Z,19.52
2022-11-12T10:50:09.275Z,19.33
2022-11-12T10:52:36.068Z,20.30
2022-11-12T10:55:18.105Z,19.25
2022-11-12T10:57:44.797Z,18.88
2022-11-12T11:00:14.331Z,20.27
2022-11-12T11:02:52.418Z,19.02
2022-11-12T11:05:35.458Z,20.67
2022-11-12T11:08:03.486Z,19.60
2022-11-12T11:10:35.048Z,19.77
2022-11-12T11:13:27.580Z,19.77
2022-11-12T11:16:03.181Z,19.15
2022-11-12T11:18:32.484Z,20.52
2022-11-12T11:21:21.633Z,20.50
2022-11-12T11:23:57.583Z,19.55
2022-11-12T11:26:29.870Z,20.98
2022-11-12T11:29:00.161Z,21.10
2022-11-12T11:31:41.995Z,21.25
2022-11-12T11:34:35.542Z,19.90
2022-11-12T11:37:20.110Z,20.48
2022-11-12T11:39:56.676Z,19.98
2022-11-12T11:42:27.123Z,20.88
2022-11-12T11:45:16.589Z,20.13
2022-11-12T11:48:09.512Z,21.00
2022-11-12T11:50:41.882Z,20.20
2022-11-12T11:53:27.429Z,20.65
2022-11-12T11:56:01.274Z,18.42
2022-11-12T11:58:54.985Z,20.33
2022-11-12T12:01:49.450Z,20.92
2022-11-12T12:04:29.343Z,20.50
2022-11-12T12:07:14.790Z,18.25
2022-11-12T12:10:09.334Z,20.10
2022-11-12T12:12:36.055Z,20.55
2022-11-12T12:15:16.123Z,19.33
2022-11-12T12:18:01.608Z,19.70
2022-11-12T12:20:57.877Z,20.55
2022-11-12T12:23:36.370Z,19.20
2022-11-12T12:26:08.132Z,19.65
2022-11-12T12:28:39.416Z,19.48
2022-11-12T12:31:11.186Z,20.33
2022-11-12T12:33:44.073Z,19.27
2022-11-12T12:36:20.155Z,16.85
2022-11-12T12:38:52.506Z,20.98
2022-11-12T12:41:27.580Z,19.30
2022-11-12T12:43:59.315Z,19.85
2022-11-12T12:46:28.189Z,18.88
2022-11-12T12:48:56.240Z,19.80
2022-11-12T12:51:22.940Z,19.80
2022-11-12T12:53:49.471Z,18.90
2022-11-12T12:56:30.707Z,19.23
2022-11-12T12:58:57.996Z,17.40
2022-11-12T13:01:31.797Z,18.90
2022-11-12T13:04:08.821Z,19.17
2022-11-12T13:06:45.777Z,18.30
2022-11-12T13:09:12.163Z,18.30
2022-11-12T13:12:01.482Z,18.00
2022-11-12T13:14:36.781Z,16.63
2022-11-12T13:17:08.225Z,17.42
2022-11-12T13:19:37.482Z,15.73
2022-11-12T13:22:19.296Z,15.85
2022-11-12T13:25:10.473Z,15.70
2022-11-12T13:27:40.154Z,15.52
2022-11-12T13:30:18.352Z,16.48
2022-11-12T13:32:47.719Z,17.02
2022-11-12T13:35:17.134Z,16.80
2022-11-12T13:38:08.573Z,17.02
2022-11-12T13:40:44.182Z,17.63
2022-11-12T13:43:31.248Z,18.50
2022-11-12T13:46:06.550Z,18.67
2022-11-12T13:49:03.099Z,17.52
2022-11-12T13:51:45.937Z,16.67
2022-11-12T13:54:30.717Z,17.83
2022-11-12T13:56:57.269Z,17.67
2022-11-12T13:59:25.370Z,18.15
2022-11-12T14:01:51.869Z,18.40
2022-11-12T14:04:23.789Z,18.70
2022-11-12T14:06:52.639Z,19.00
2022-11-12T14:09:40.565Z,18.13
2022-11-12T14:12:35.084Z,20.40
2022-11-12T14:15:34.546Z,19.90
2022-11-12T14:18:44.194Z,19.10
2022-11-12T14:21:16.557Z,21.00
2022-11-12T14:23:47.122Z,20.05
2022-11-12T14:26:14.712Z,20.42
2022-11-12T14:28:41.833Z,20.25
2022-11-12T14:31:13.688Z,18.60
2022-11-12T14:33:40.430Z,19.63
2022-11-12T14:36:11.562Z,19.02
2022-11-12T14:38:40.345Z,20.70
2022-11-12T14:41:15.210Z,19.63
2022-11-12T14:43:45.323Z,18.98
2022-11-12T14:46:25.628Z,20.48
2022-11-12T14:49:21.910Z,20.13
2022-11-12T14:51:56.916Z,20.85
2022-11-12T14:54:35.921Z,20.02
2022-11-12T14:57:03.510Z,20.35
2022-11-12T14:59:31.059Z,21.95
2022-11-12T15:02:34.983Z,20.35
2022-11-12T15:05:01.461Z,19.48
2022-11-12T15:07:37.417Z,22.27
2022-11-12T15:10:39.568Z,22.83
2022-11-12T15:13:15.484Z,21.05
2022-11-12T15:15:55.249Z,19.55
2022-11-12T15:18:24.454Z,20.65
2022-11-12T15:21:05.597Z,22.20
2022-11-12T15:23:32.118Z,19.35
2022-11-12T15:25:59.858Z,20.17
2022-11-12T15:28:26.564Z,15.73
2022-11-12T15:31:19.281Z,16.27
2022-11-12T15:33:45.745Z,16.20
2022-11-12T15:36:19.070Z,15.43
2022-11-12T15:38:54.462Z,13.38
2022-11-12T15:41:26.906Z,14.23
2022-11-12T15:43:53.549Z,13.07
2022-11-12T15:46:20.010Z,12.35
2022-11-12T15:48:50.254Z,13.93
2022-11-12T15:51:19.725Z,14.70
2022-11-12T15:53:46.190Z,12.60
2022-11-12T15:56:15.068Z,12.38
2022-11-12T15:58:41.564Z,12.23
2022-11-12T16:01:11.123Z,14.50
2022-11-12T16:03:40.361Z,15.13
2022-11-12T16:06:09.629Z,15.00
2022-11-12T16:08:36.183Z,14.98
2022-11-12T16:11:02.662Z,15.93
2022-11-12T16:13:33.135Z,15.48
2022-11-12T16:16:01.558Z,16.33
2022-11-12T16:18:28.016Z,15.13
2022-11-12T16:20:54.464Z,16.95
2022-11-12T16:23:20.922Z,15.77
2022-11-12T16:25:47.576Z,15.55
2022-11-12T16:28:18.277Z,15.30
2022-11-12T16:30:46.373Z,15.88
2022-11-12T16:33:13.446Z,16.50
2022-11-12T16:35:40.302Z,16.70
2022-11-12T16:38:14.781Z,16.83
2022-11-12T16:40:42.017Z,19.63
2022-11-12T16:43:08.601Z,20.48
2022-11-12T16:45:38.902Z,20.98
2022-11-12T16:48:13.060Z,21.55
2022-11-12T16:50:39.624Z,21.52
2022-11-12T16:53:06.117Z,22.90
2022-11-12T16:55:32.585Z,22.23
2022-11-12T16:57:59.033Z,21.35
2022-11-12T17:00:25.501Z,22.65
2022-11-12T17:02:53.595Z,21.33
2022-11-12T17:05:22.769Z,20.95
2022-11-12T17:07:49.867Z,22.42
2022-11-12T17:10:16.830Z,22.70
2022-11-12T17:12:43.494Z,22.50
2022-11-12T17:15:10.216Z,22.35
2022-11-12T17:17:36.734Z,21.80
2022-11-12T17:20:03.740Z,21.60
2022-11-12T17:22:31.103Z,22.92
2022-11-12T17:24:57.594Z,22.55
2022-11-12T17:27:24.093Z,22.55
2022-11-12T17:29:50.553Z,23.10
2022-11-12T17:32:17.092Z,23.23
2022-11-12T17:34:43.595Z,24.38
2022-11-12T17:37:10.101Z,24.20
2022-11-12T17:39:36.569Z,22.15
2022-11-12T17:42:03.024Z,22.60
2022-11-12T17:44:29.481Z,23.63
2022-11-12T17:46:56.033Z,24.65
2022-11-12T17:49:22.527Z,24.25
2022-11-12T17:51:48.981Z,24.45
2022-11-12T17:54:15.461Z,24.40
2022-11-12T17:56:41.926Z,23.55
2022-11-12T17:59:08.764Z,24.50
2022-11-12T18:01:35.401Z,24.45
2022-11-12T18:04:01.888Z,25.05
2022-11-12T18:06:32.297Z,26.30
2022-11-12T18:09:01.669Z,25.25
2022-11-12T18:11:29.535Z,26.70
2022-11-12T18:13:56.537Z,26.48
2022-11-12T18:16:26.439Z,24.42
2022-11-12T18:18:57.026Z,23.33
2022-11-12T18:21:24.452Z,24.00
2022-11-12T18:23:50.998Z,24.83
2022-11-12T18:26:18.822Z,26.77
2022-11-12T18:28:50.370Z,28.58
2022-11-12T18:31:17.352Z,27.08
2022-11-12T18:33:43.820Z,26.35
2022-11-12T18:36:15.013Z,26.67
2022-11-12T18:38:41.482Z,27.58
2022-11-12T18:41:12.771Z,25.77
2022-11-12T18:43:40.116Z,28.20
2022-11-12T18:46:07.859Z,28.23
2022-11-12T18:48:35.725Z,27.23
2022-11-12T18:51:07.518Z,31.25
2022-11-12T18:53:34.187Z,29.58
2022-11-12T18:56:21.849Z,33.58
2022-11-12T18:58:48.630Z,29.13
2022-11-12T19:01:17.163Z,30.23
2022-11-12T19:03:44.128Z,32.05
2022-11-12T19:06:14.761Z,33.03
2022-11-12T19:08:41.316Z,30.48
2022-11-12T19:11:09.796Z,30.30
2022-11-12T19:13:36.740Z,31.85
2022-11-12T19:16:05.825Z,31.95
2022-11-12T19:18:32.594Z,32.08
2022-11-12T19:21:13.802Z,33.45
2022-11-12T19:23:41.384Z,33.97
2022-11-12T19:26:10.580Z,31.33
2022-11-12T19:28:37.365Z,30.83
2022-11-12T19:31:05.437Z,29.40
2022-11-12T19:33:33.043Z,31.02
2022-11-12T19:36:05.127Z,29.42
2022-11-12T19:38:32.911Z,35.10
2022-11-12T19:41:04.081Z,28.73
2022-11-12T19:43:30.738Z,31.20
2022-11-12T19:45:57.250Z,38.90
2022-11-12T19:48:24.036Z,27.00
2022-11-12T19:50:50.610Z,35.15
2022-11-12T19:53:17.052Z,35.13
2022-11-12T19:55:43.603Z,31.00
2022-11-12T19:58:10.101Z,31.20
2022-11-12T20:00:37.252Z,25.80
2022-11-12T20:03:03.920Z,33.97
2022-11-12T20:05:30.646Z,37.15
2022-11-12T20:07:57.101Z,29.90
2022-11-12T20:10:23.596Z,30.73
2022-11-12T20:12:55.745Z,29.42
2022-11-12T20:15:22.244Z,30.08
2022-11-12T20:17:48.712Z,26.70
2022-11-12T20:20:15.500Z,26.42
2022-11-12T20:22:41.978Z,21.83
2022-11-12T20:25:09.033Z,18.88
2022-11-12T20:27:35.653Z,35.28
2022-11-12T20:30:02.285Z,16.52
2022-11-12T20:32:28.754Z,27.83
2022-11-12T20:34:55.337Z,13.27
2022-11-12T20:37:22.613Z,14.05
2022-11-12T20:39:49.090Z,13.68
2022-11-12T20:42:15.533Z,14.82
2022-11-12T20:44:41.994Z,16.60
2022-11-12T20:47:08.458Z,17.80
2022-11-12T20:49:34.924Z,13.30
2022-11-12T20:52:02.365Z,13.05
2022-11-12T20:54:28.854Z,11.75
2022-11-12T20:56:56.024Z,12.35
2022-11-12T20:59:23.260Z,13.38
2022-11-12T21:01:49.747Z,14.32
2022-11-12T21:04:16.228Z,14.23
2022-11-12T21:06:42.738Z,15.98
2022-11-12T21:09:09.226Z,14.77
2022-11-12T21:11:35.736Z,15.45
2022-11-12T21:14:02.177Z,15.15
2022-11-12T21:16:28.660Z,15.13
2022-11-12T21:18:55.105Z,15.32
2022-11-12T21:21:21.655Z,21.00
2022-11-12T21:23:50.181Z,18.38
2022-11-12T21:26:18.945Z,11.50
2022-11-12T21:28:50.489Z,10.05
2022-11-12T21:31:18.945Z,12.35
2022-11-12T21:33:48.965Z,14.13
2022-11-12T21:36:16.756Z,13.40
2022-11-12T21:38:44.053Z,14.20
2022-11-12T21:41:13.578Z,13.48
2022-11-12T21:43:42.999Z,14.60
2022-11-12T21:46:10.751Z,18.40
2022-11-12T21:48:37.281Z,15.77
2022-11-12T21:51:14.292Z,14.43
2022-11-12T21:53:41.277Z,11.40
2022-11-12T21:56:17.056Z,16.27
2022-11-12T21:58:43.671Z,17.95
2022-11-12T22:01:21.260Z,13.82
2022-11-12T22:03:49.439Z,24.08
2022-11-12T22:06:16.154Z,15.63
2022-11-12T22:08:43.053Z,16.50
2022-11-12T22:11:11.451Z,11.70
2022-11-12T22:13:38.468Z,22.42
2022-11-12T22:16:24.263Z,20.80
2022-11-12T22:18:53.157Z,20.40
2022-11-12T22:21:34.079Z,24.73
2022-11-12T22:24:02.018Z,21.35
2022-11-12T22:26:28.581Z,47.65
2022-11-12T22:28:56.845Z,39.13
2022-11-12T22:31:27.017Z,18.52
2022-11-12T22:33:53.529Z,28.30
2022-11-12T22:36:22.485Z,27.35
2022-11-12T22:38:50.588Z,23.15
2022-11-12T22:41:22.551Z,24.40
2022-11-12T22:43:50.477Z,25.88
2022-11-12T22:46:19.084Z,21.02
2022-11-12T22:48:45.805Z,36.22
2022-11-12T22:51:15.360Z,38.67
2022-11-12T22:53:41.892Z,30.30
2022-11-12T22:56:10.015Z,24.38
2022-11-12T22:58:41.436Z,25.75
2022-11-12T23:01:11.057Z,24.95
2022-11-12T23:03:37.726Z,36.63
2022-11-12T23:06:05.700Z,27.58
2022-11-12T23:08:32.751Z,26.88
2022-11-12T23:11:07.355Z,20.77
2022-11-12T23:13:34.571Z,21.25
2022-11-12T23:16:01.171Z,33.38
2022-11-12T23:18:27.924Z,20.08
2022-11-12T23:20:54.588Z,24.08
2022-11-12T23:23:22.076Z,40.90
2022-11-12T23:25:48.561Z,20.58
2022-11-12T23:28:15.016Z,19.38
2022-11-12T23:30:48.557Z,21.80
2022-11-12T23:35:41.328Z,34.95
2022-11-12T23:38:07.826Z,27.10
2022-11-12T23:40:34.417Z,31.15
2022-11-12T23:43:00.926Z,29.42
2022-11-12T23:45:27.433Z,24.45
2022-11-12T23:47:55.889Z,20.33
2022-11-12T23:50:22.693Z,20.33
2022-11-12T23:52:49.179Z,29.48
2022-11-12T23:55:15.768Z,27.98
2022-11-12T23:57:42.229Z,25.58
